createdAt,value
2023-02-23T00:08:45.967Z,95.97
2023-02-23T00:19:46.458Z,96.28
2023-02-23T00:23:10.064Z,96.62
2023-02-23T00:45:08.095Z,97.08
2023-02-23T00:51:19.497Z,96.93
2023-02-23T00:57:22.293Z,96.72
2023-02-23T01:12:20.426Z,96.69
2023-02-23T01:19:02.317Z,97.53
2023-02-23T01:22:11.167Z,98.23
2023-02-23T01:32:04.497Z,97.98
2023-02-23T02:01:23.277Z,100.00
2023-02-23T02:04:00.697Z,100.00
2023-02-23T02:22:09.623Z,100.00
2023-02-23T02:24:49.396Z,100.00
2023-02-23T02:28:14.694Z,100.00
2023-02-23T02:31:03.591Z,100.00
2023-02-23T02:35:07.684Z,100.00
2023-02-23T02:38:41.045Z,100.00
2023-02-23T02:41:23.289Z,100.00
2023-02-23T02:44:30.014Z,100.00
2023-02-23T02:47:23.620Z,100.00
2023-02-23T03:09:29.195Z,100.00
2023-02-23T03:17:16.904Z,99.95
2023-02-23T03:20:42.956Z,100.00
2023-02-23T03:23:46.400Z,100.00
2023-02-23T03:27:24.705Z,100.00
2023-02-23T03:30:52.533Z,99.77
2023-02-23T03:49:03.119Z,99.27
2023-02-23T03:52:30.975Z,99.66
2023-02-23T04:16:07.529Z,99.19
2023-02-23T04:19:14.078Z,99.09
2023-02-23T04:21:44.297Z,98.20
2023-02-23T04:29:06.041Z,99.35
2023-02-23T04:32:34.989Z,99.70
2023-02-23T04:38:20.585Z,99.94
2023-02-23T04:41:25.683Z,99.73
2023-02-23T04:43:52.571Z,100.00
2023-02-23T04:46:19.337Z,100.00
2023-02-23T04:48:46.935Z,99.93
2023-02-23T04:51:37.027Z,99.58
2023-02-23T04:54:33.543Z,99.62
2023-02-23T04:57:21.045Z,98.97
2023-02-23T04:59:51.796Z,99.57
2023-02-23T05:02:28.739Z,99.55
2023-02-23T05:04:58.299Z,99.80
2023-02-23T05:07:25.798Z,98.92
2023-02-23T05:10:07.274Z,99.08
2023-02-23T05:12:45.149Z,99.80
2023-02-23T05:15:12.338Z,100.00
2023-02-23T05:18:01.572Z,99.68
2023-02-23T05:21:11.422Z,100.00
2023-02-23T05:24:02.706Z,100.00
2023-02-23T05:27:53.475Z,100.00
2023-02-23T05:30:21.050Z,100.00
2023-02-23T05:35:45.847Z,100.00
2023-02-23T05:38:12.958Z,100.00
2023-02-23T05:40:49.603Z,100.00
2023-02-23T05:43:32.393Z,100.00
2023-02-23T05:46:23.809Z,100.00
2023-02-23T05:49:23.307Z,100.00
2023-02-23T05:51:56.379Z,100.00
2023-02-23T05:54:30.116Z,100.00
2023-02-23T05:57:25.682Z,100.00
2023-02-23T05:59:55.685Z,100.00
2023-02-23T06:02:26.385Z,100.00
2023-02-23T06:04:57.313Z,100.00
2023-02-23T06:07:55.073Z,100.00
2023-02-23T06:10:13.169Z,100.00
2023-02-23T06:12:46.456Z,100.00
2023-02-23T06:15:14.491Z,100.00
2023-02-23T06:24:45.924Z,100.00
2023-02-23T06:27:28.242Z,100.00
2023-02-23T06:30:26.044Z,100.00
2023-02-23T06:33:16.525Z,100.00
2023-02-23T06:35:47.433Z,100.00
2023-02-23T06:38:18.597Z,100.00
2023-02-23T06:40:46.073Z,100.00
2023-02-23T06:43:13.383Z,100.00
2023-02-23T06:46:13.890Z,100.00
2023-02-23T06:48:41.497Z,100.00
2023-02-23T06:51:14.777Z,100.00
2023-02-23T06:53:42.518Z,100.00
2023-02-23T06:56:18.645Z,100.00
2023-02-23T06:58:49.084Z,100.00
2023-02-23T07:01:21.683Z,100.00
2023-02-23T07:03:54.736Z,100.00
2023-02-23T07:06:48.698Z,98.82
2023-02-23T07:13:31.248Z,95.44
2023-02-23T07:16:01.420Z,94.54
2023-02-23T07:18:28.271Z,93.05
2023-02-23T07:20:55.011Z,91.64
2023-02-23T07:23:22.726Z,90.40
2023-02-23T07:25:54.288Z,90.94
2023-02-23T07:28:21.527Z,88.33
2023-02-23T07:30:51.548Z,86.76
2023-02-23T07:33:24.762Z,84.50
2023-02-23T07:35:54.699Z,83.17
2023-02-23T07:38:21.626Z,80.83
2023-02-23T07:40:50.769Z,80.27
2023-02-23T07:43:18.028Z,78.93
2023-02-23T07:45:48.283Z,78.15
2023-02-23T07:48:26.707Z,77.23
2023-02-23T07:50:54.209Z,77.61
2023-02-23T07:53:30.817Z,75.71
2023-02-23T07:56:02.213Z,74.25
2023-02-23T07:58:31.114Z,74.19
2023-02-23T08:00:58.306Z,72.80
2023-02-23T08:03:50.006Z,71.98
2023-02-23T08:06:18.619Z,73.30
2023-02-23T08:08:55.770Z,71.54
2023-02-23T08:11:29.367Z,72.33
2023-02-23T08:14:00.464Z,69.60
2023-02-23T08:16:32.631Z,68.50
2023-02-23T08:19:03.937Z,66.82
2023-02-23T08:21:32.108Z,66.63
2023-02-23T08:24:02.289Z,66.14
2023-02-23T08:26:29.913Z,62.93
2023-02-23T08:29:17.220Z,63.28
2023-02-23T08:31:50.545Z,62.11
2023-02-23T08:34:19.000Z,61.93
2023-02-23T08:36:46.399Z,61.47
2023-02-23T08:39:32.922Z,60.89
2023-02-23T08:42:00.844Z,59.60
2023-02-23T08:44:28.330Z,59.91
2023-02-23T08:47:08.090Z,59.72
2023-02-23T08:49:35.138Z,59.00
2023-02-23T08:52:11.444Z,59.14
2023-02-23T08:54:41.740Z,57.90
2023-02-23T08:57:12.676Z,58.52
2023-02-23T08:59:41.876Z,58.50
2023-02-23T09:02:13.162Z,57.66
2023-02-23T09:04:44.513Z,56.50
2023-02-23T09:07:53.948Z,57.86
2023-02-23T09:10:27.747Z,56.49
2023-02-23T09:12:55.765Z,56.43
2023-02-23T09:15:22.934Z,55.87
2023-02-23T09:18:13.821Z,54.74
2023-02-23T09:20:47.892Z,55.37
2023-02-23T09:23:15.031Z,54.63
2023-02-23T09:25:43.818Z,55.33
2023-02-23T09:28:19.830Z,55.54
2023-02-23T09:30:47.877Z,55.20
2023-02-23T09:33:18.245Z,54.92
2023-02-23T09:35:45.085Z,53.13
2023-02-23T09:38:11.999Z,52.82
2023-02-23T09:40:50.017Z,52.95
2023-02-23T09:43:25.756Z,53.02
2023-02-23T09:46:23.902Z,51.73
2023-02-23T09:49:06.024Z,51.50
2023-02-23T09:51:42.415Z,52.33
2023-02-23T09:54:17.822Z,51.41
2023-02-23T09:56:48.662Z,51.63
2023-02-23T09:59:22.512Z,51.30
2023-02-23T10:01:58.992Z,52.08
2023-02-23T10:04:48.089Z,51.65
2023-02-23T10:07:21.296Z,52.77
2023-02-23T10:10:13.199Z,51.91
2023-02-23T10:16:05.815Z,50.28
2023-02-23T10:19:19.017Z,50.23
2023-02-23T10:21:56.551Z,50.68
2023-02-23T10:24:33.411Z,51.72
2023-02-23T10:27:07.595Z,50.76
2023-02-23T10:29:51.615Z,50.82
2023-02-23T10:32:36.996Z,50.03
2023-02-23T10:35:11.528Z,49.66
2023-02-23T10:37:40.939Z,48.62
2023-02-23T10:40:21.042Z,49.86
2023-02-23T10:42:48.501Z,49.74
2023-02-23T10:45:24.746Z,49.17
2023-02-23T10:47:59.764Z,49.18
2023-02-23T10:50:29.047Z,48.76
2023-02-23T10:53:03.445Z,49.23
2023-02-23T10:55:32.474Z,48.91
2023-02-23T10:58:08.516Z,49.42
2023-02-23T11:00:38.793Z,48.60
2023-02-23T11:03:22.062Z,49.46
2023-02-23T11:05:53.251Z,50.59
2023-02-23T11:08:31.057Z,50.48
2023-02-23T11:11:16.110Z,49.63
2023-02-23T11:16:39.777Z,48.35
2023-02-23T11:19:37.310Z,49.09
2023-02-23T11:22:08.513Z,49.56
2023-02-23T11:24:58.373Z,49.63
2023-02-23T11:27:29.608Z,48.92
2023-02-23T11:30:01.455Z,48.67
2023-02-23T11:32:44.446Z,48.05
2023-02-23T11:35:36.525Z,49.58
2023-02-23T11:38:16.113Z,49.95
2023-02-23T11:43:55.703Z,49.65
2023-02-23T11:46:47.310Z,50.34
2023-02-23T11:49:21.245Z,49.94
2023-02-23T11:51:56.386Z,50.52
2023-02-23T11:54:35.199Z,52.05
2023-02-23T12:00:01.908Z,50.62
2023-02-23T12:03:03.106Z,51.48
2023-02-23T12:09:00.389Z,51.27
2023-02-23T12:11:35.239Z,52.15
2023-02-23T12:14:23.518Z,52.80
2023-02-23T12:16:57.746Z,52.45
2023-02-23T12:19:31.121Z,53.11
2023-02-23T12:22:14.359Z,53.05
2023-02-23T12:25:20.665Z,51.93
2023-02-23T12:27:57.259Z,52.64
2023-02-23T12:30:46.625Z,52.52
2023-02-23T12:33:46.445Z,53.01
2023-02-23T12:38:27.975Z,53.75
2023-02-23T12:40:37.120Z,54.94
2023-02-23T12:43:29.697Z,53.99
2023-02-23T12:46:40.756Z,53.85
2023-02-23T12:49:27.871Z,52.93
2023-02-23T12:52:16.679Z,53.48
2023-02-23T12:54:48.634Z,54.01
2023-02-23T12:57:34.965Z,52.65
2023-02-23T13:00:31.368Z,53.69
2023-02-23T13:03:33.664Z,53.59
2023-02-23T13:06:25.686Z,53.42
2023-02-23T13:09:00.781Z,53.88
2023-02-23T13:11:47.883Z,54.02
2023-02-23T13:14:33.808Z,53.74
2023-02-23T13:17:23.207Z,53.75
2023-02-23T13:20:02.241Z,54.37
2023-02-23T13:22:58.633Z,54.19
2023-02-23T13:25:39.636Z,54.43
2023-02-23T13:28:16.520Z,54.80
2023-02-23T13:30:48.225Z,54.57
2023-02-23T13:33:44.119Z,54.87
2023-02-23T13:36:32.241Z,54.21
2023-02-23T13:39:49.806Z,55.22
2023-02-23T13:42:47.610Z,54.82
2023-02-23T13:45:44.845Z,55.24
2023-02-23T13:48:31.097Z,54.67
2023-02-23T13:51:05.249Z,55.73
2023-02-23T13:53:44.675Z,54.65
2023-02-23T13:56:22.050Z,54.97
2023-02-23T13:58:54.038Z,55.49
2023-02-23T14:01:26.458Z,56.00
2023-02-23T14:04:16.122Z,56.19
2023-02-23T14:06:54.117Z,57.03
2023-02-23T14:09:32.875Z,57.45
2023-02-23T14:12:29.016Z,57.78
2023-02-23T14:14:58.920Z,57.95
2023-02-23T14:17:39.240Z,58.24
2023-02-23T14:20:29.672Z,58.32
2023-02-23T14:23:46.907Z,58.29
2023-02-23T14:26:39.136Z,57.72
2023-02-23T14:29:27.678Z,57.79
2023-02-23T14:31:56.405Z,58.16
2023-02-23T14:34:43.384Z,58.90
2023-02-23T14:37:18.691Z,59.76
2023-02-23T14:39:59.548Z,58.60
2023-02-23T14:42:29.897Z,60.41
2023-02-23T14:45:14.753Z,59.92
2023-02-23T14:48:24.194Z,60.13
2023-02-23T14:51:40.291Z,60.76
2023-02-23T14:54:35.319Z,62.08
2023-02-23T14:57:20.092Z,61.63
2023-02-23T15:00:13.206Z,62.19
2023-02-23T15:02:54.013Z,62.74
2023-02-23T15:05:28.048Z,63.71
2023-02-23T15:08:31.845Z,62.91
2023-02-23T15:11:18.617Z,63.06
2023-02-23T15:13:51.020Z,64.20
2023-02-23T15:16:37.198Z,63.61
2023-02-23T15:19:11.944Z,64.06
2023-02-23T15:21:40.694Z,64.30
2023-02-23T15:24:29.926Z,64.84
2023-02-23T15:27:29.501Z,65.29
2023-02-23T15:29:57.542Z,66.04
2023-02-23T15:32:49.947Z,65.46
2023-02-23T15:35:29.142Z,66.56
2023-02-23T15:38:14.134Z,66.61
2023-02-23T15:40:48.808Z,67.05
2023-02-23T15:43:34.843Z,66.95
2023-02-23T15:46:29.181Z,67.69
2023-02-23T15:49:39.217Z,67.77
2023-02-23T15:59:49.824Z,68.55
2023-02-23T16:07:03.411Z,68.94
2023-02-23T16:10:25.487Z,70.56
2023-02-23T16:13:37.745Z,70.09
2023-02-23T16:19:29.660Z,70.88
2023-02-23T16:22:09.235Z,71.98
2023-02-23T16:24:51.938Z,71.54
2023-02-23T16:46:32.226Z,75.51
2023-02-23T16:48:59.813Z,76.08
2023-02-23T16:51:35.050Z,76.41
2023-02-23T16:54:13.852Z,77.84
2023-02-23T16:56:50.964Z,78.36
2023-02-23T17:06:07.179Z,85.30
2023-02-23T17:08:43.370Z,85.99
2023-02-23T17:38:15.543Z,86.39
2023-02-23T17:47:34.711Z,86.08
2023-02-23T17:50:04.607Z,84.24
2023-02-23T17:53:44.996Z,83.29
2023-02-23T17:56:12.809Z,82.98
2023-02-23T18:02:21.707Z,83.65
2023-02-23T18:05:15.944Z,83.21
2023-02-23T18:12:16.536Z,84.45
2023-02-23T18:15:11.978Z,86.03
2023-02-23T18:21:30.152Z,87.17
2023-02-23T18:23:57.058Z,87.04
2023-02-23T18:27:09.534Z,87.96
2023-02-23T18:33:10.340Z,87.93
2023-02-23T18:35:41.022Z,87.61
2023-02-23T18:38:17.307Z,88.59
2023-02-23T18:41:03.851Z,88.60
2023-02-23T18:44:00.277Z,88.75
2023-02-23T18:50:34.348Z,88.76
2023-02-23T18:53:05.936Z,90.75
2023-02-23T18:59:05.359Z,90.50
2023-02-23T19:01:50.820Z,90.87
2023-02-23T19:04:17.615Z,91.17
2023-02-23T19:07:23.588Z,92.44
2023-02-23T19:17:06.194Z,91.89
2023-02-23T19:22:38.742Z,91.82
2023-02-23T19:25:37.826Z,91.01
2023-02-23T19:28:16.456Z,90.56
2023-02-23T19:30:50.215Z,91.43
2023-02-23T19:33:20.040Z,91.57
2023-02-23T19:35:47.045Z,90.53
2023-02-23T19:38:26.607Z,90.79
2023-02-23T19:41:24.130Z,90.54
2023-02-23T19:43:50.857Z,89.76
2023-02-23T19:46:38.189Z,89.55
2023-02-23T19:49:22.135Z,89.40
2023-02-23T19:51:53.552Z,89.83
2023-02-23T19:54:36.304Z,89.76
2023-02-23T19:57:04.445Z,90.32
2023-02-23T19:59:37.104Z,90.48
2023-02-23T20:02:04.459Z,90.42
2023-02-23T20:04:53.694Z,90.55
2023-02-23T20:07:23.717Z,90.27
2023-02-23T20:09:53.849Z,89.89
2023-02-23T20:22:45.339Z,88.82
2023-02-23T20:26:06.868Z,89.35
2023-02-23T20:28:33.927Z,89.05
2023-02-23T20:31:30.324Z,88.54
2023-02-23T20:35:09.214Z,88.89
2023-02-23T20:37:48.836Z,88.50
2023-02-23T20:41:13.558Z,89.31
2023-02-23T20:44:30.918Z,88.45
2023-02-23T20:51:02.851Z,88.07
2023-02-23T20:53:33.416Z,87.89
2023-02-23T20:56:50.477Z,87.68
2023-02-23T20:59:52.318Z,87.58
2023-02-23T21:02:53.599Z,88.38
2023-02-23T21:05:24.005Z,88.36
2023-02-23T21:08:02.324Z,87.93
2023-02-23T21:14:11.662Z,88.26
2023-02-23T21:17:16.317Z,88.68
2023-02-23T21:20:36.624Z,88.89
2023-02-23T21:23:49.898Z,88.63
2023-02-23T21:26:52.718Z,89.25
2023-02-23T21:29:53.601Z,88.84
2023-02-23T21:33:11.163Z,88.56
2023-02-23T21:39:04.352Z,88.45
2023-02-23T21:50:09.169Z,88.59
2023-02-23T22:34:45.577Z,89.19
2023-02-23T23:08:40.198Z,89.74
2023-02-23T23:21:03.179Z,89.86
2023-02-23T23:42:30.653Z,89.88
2023-02-23T23:45:02.449Z,90.89
2023-02-23T23:47:39.216Z,90.34
